Main page
METAR-TAF:

METAR-TAF

Airports :

Ponta Delgada, Azores, Portugal

João Paulo II Airport

latitude: 37-44N, longitude: 025-42W, elevation: 71 m

Current weather observation

The report was made 16 minutes ago, at 02:00 UTC
Wind 1 kt from the Northeast
Temperature 22°C
Humidity 88%
Pressure 1024 hPa
Visibility 10 km or more
Few clouds at a height of 1800 ft
Broken clouds at a height of 3000 ft

METAR: LPPD 200200Z 05001KT 9999 FEW018 BKN030 22/20 Q1024

Time: 02:16 (02:16 UTC)

Forecast

The report was made 3 hours and 16 minutes ago, at 23:00 UTC
Forecast valid from 20 at 00 UTC to 20 at 24 UTC
Wind 5 kt from variable directions
Visibility 10 km or more
Scattered clouds at a height of 2000 ft
Temporary
from 20 at 00 UTC to 20 at 24 UTC
Wind 8 kt from the Southwest
Few clouds at a height of 1500 ft
Broken clouds at a height of 3000 ft

TAF: LPPD 192300Z 2000/2024 VRB05KT 9999 SCT020 TEMPO 2000/2024 23008KT FEW015 BKN030

Weather observations and forecasts of more than 4000 airports (METAR and TAF reports).

The available stations are represented by yellow and red dots on the map.

Hover mouse over dot to see the name of the station.

Then click to see weather observations and forecasts.

To change the map : click on the green buttons with a black cross to zoom in, on the green button with a dash to zoom out, or on the green arrows for adjacent maps.


METAR-TAF: